Time;durP1;ratioP1;P1;durP2;ratioP2;P2;SDS_P1;SDS_P2;PMS_P1;PMS_P2;Temp;Humidity;BMP_temperature;BMP_pressure;BME280_temperature;BME280_humidity;BME280_pressure;Samples;Min_cycle;Max_cycle;Signal;HPM_P1;HPM_P2
2023/07/18 00:00:46;;;;;;;4.13;2.53;;;;;;;;;;5071677;28;20457;-79
2023/07/18 00:03:14;;;;;;;3.85;2.22;;;;;;;;;;5069000;28;20539;-79
2023/07/18 00:05:40;;;;;;;3.42;2.10;;;;;;;;;;5065955;28;20025;-79
2023/07/18 00:08:07;;;;;;;4.88;1.85;;;;;;;;;;5070264;28;20040;-79
2023/07/18 00:10:33;;;;;;;2.83;2.10;;;;;;;;;;5070826;28;20486;-79
2023/07/18 00:12:59;;;;;;;5.20;2.25;;;;;;;;;;5070491;28;20038;-79
2023/07/18 00:15:26;;;;;;;2.42;2.00;;;;;;;;;;5085010;28;20272;-79
2023/07/18 00:17:52;;;;;;;1.95;1.75;;;;;;;;;;5069402;28;20024;-79
2023/07/18 00:20:18;;;;;;;3.15;1.90;;;;;;;;;;5067690;28;20025;-79
2023/07/18 00:22:50;;;;;;;6.68;2.13;;;;;;;;;;5071248;28;20024;-79
2023/07/18 00:25:20;;;;;;;2.75;1.98;;;;;;;;;;5071571;28;20107;-80
2023/07/18 00:27:50;;;;;;;4.43;2.70;;;;;;;;;;5070035;28;20063;-79
2023/07/18 00:30:17;;;;;;;3.63;1.90;;;;;;;;;;5069067;28;20127;-79
2023/07/18 00:32:44;;;;;;;1.90;1.75;;;;;;;;;;5068726;28;20779;-79
2023/07/18 00:35:11;;;;;;;3.42;2.90;;;;;;;;;;5070904;28;20042;-79
2023/07/18 00:37:38;;;;;;;3.55;1.83;;;;;;;;;;5078390;28;20073;-79
2023/07/18 00:40:10;;;;;;;4.18;2.28;;;;;;;;;;5069850;28;20028;-78
2023/07/18 00:42:39;;;;;;;2.80;2.03;;;;;;;;;;5064448;28;20105;-79
2023/07/18 00:45:06;;;;;;;5.95;2.30;;;;;;;;;;5069065;28;20112;-78
2023/07/18 00:47:40;;;;;;;4.28;1.98;;;;;;;;;;5066695;28;20036;-79
2023/07/18 00:50:07;;;;;;;5.90;2.35;;;;;;;;;;5068902;28;20032;-79
2023/07/18 00:52:35;;;;;;;3.00;2.22;;;;;;;;;;5062513;28;20098;-78
2023/07/18 00:55:02;;;;;;;4.63;2.58;;;;;;;;;;5069484;28;20028;-79
2023/07/18 00:57:28;;;;;;;5.05;1.98;;;;;;;;;;5065633;28;20051;-78
2023/07/18 00:59:54;;;;;;;4.35;2.30;;;;;;;;;;5063583;28;20701;-79
2023/07/18 01:02:20;;;;;;;5.43;3.17;;;;;;;;;;5067820;28;20603;-78
2023/07/18 01:04:46;;;;;;;2.90;2.17;;;;;;;;;;5058789;28;20036;-79
2023/07/18 01:07:13;;;;;;;2.83;2.20;;;;;;;;;;5069667;28;20025;-78
2023/07/18 01:09:39;;;;;;;2.15;1.95;;;;;;;;;;5065613;28;20041;-78
2023/07/18 01:12:06;;;;;;;2.83;2.60;;;;;;;;;;5064227;28;20029;-79
2023/07/18 01:14:33;;;;;;;2.55;2.00;;;;;;;;;;5071156;28;20067;-79
2023/07/18 01:16:59;;;;;;;6.90;2.20;;;;;;;;;;5073141;28;20033;-79
2023/07/18 01:19:25;;;;;;;3.00;2.13;;;;;;;;;;5068541;28;20116;-79
2023/07/18 01:21:51;;;;;;;6.50;2.50;;;;;;;;;;5067095;28;20035;-78
2023/07/18 01:24:18;;;;;;;3.28;2.00;;;;;;;;;;5070899;28;20036;-79
2023/07/18 01:26:44;;;;;;;7.65;2.63;;;;;;;;;;5065463;28;20036;-79
2023/07/18 01:29:10;;;;;;;7.03;2.30;;;;;;;;;;5067015;28;20406;-79
2023/07/18 01:31:36;;;;;;;4.47;2.17;;;;;;;;;;5068836;28;20039;-81
2023/07/18 01:34:04;;;;;;;3.70;2.40;;;;;;;;;;5071665;28;20036;-79
2023/07/18 01:36:30;;;;;;;4.25;2.28;;;;;;;;;;5069047;28;20055;-79
2023/07/18 01:38:57;;;;;;;5.68;2.88;;;;;;;;;;5068568;28;20020;-79
2023/07/18 01:41:23;;;;;;;6.18;2.50;;;;;;;;;;5070799;28;20052;-79
2023/07/18 01:43:49;;;;;;;4.13;2.47;;;;;;;;;;5067362;28;20082;-79
2023/07/18 01:46:15;;;;;;;3.15;2.20;;;;;;;;;;5085945;28;20020;-80
2023/07/18 01:48:41;;;;;;;4.57;2.20;;;;;;;;;;5092085;28;20024;-79
2023/07/18 01:51:07;;;;;;;3.72;2.20;;;;;;;;;;5088714;28;20025;-79
2023/07/18 01:53:33;;;;;;;5.47;2.35;;;;;;;;;;5087671;28;20024;-80
2023/07/18 01:55:59;;;;;;;7.85;4.35;;;;;;;;;;5076518;28;20040;-79
2023/07/18 01:58:25;;;;;;;3.60;2.20;;;;;;;;;;5074180;28;20025;-79
2023/07/18 02:00:51;;;;;;;3.38;2.45;;;;;;;;;;5075595;28;20031;-79
2023/07/18 02:03:18;;;;;;;5.55;2.67;;;;;;;;;;5076362;28;20044;-79
2023/07/18 02:05:44;;;;;;;5.00;2.30;;;;;;;;;;5072510;28;20560;-79
2023/07/18 02:08:10;;;;;;;9.20;2.85;;;;;;;;;;5072271;28;20084;-80
2023/07/18 02:10:36;;;;;;;4.88;2.28;;;;;;;;;;5071938;28;20054;-79
2023/07/18 02:13:03;;;;;;;3.50;2.50;;;;;;;;;;5074361;28;20028;-79
2023/07/18 02:15:29;;;;;;;3.70;2.33;;;;;;;;;;5069259;28;20048;-80
2023/07/18 02:17:55;;;;;;;7.22;3.60;;;;;;;;;;5084318;28;20047;-80
2023/07/18 02:20:21;;;;;;;2.70;2.50;;;;;;;;;;5070824;28;20099;-80
2023/07/18 02:22:48;;;;;;;3.00;2.50;;;;;;;;;;5072519;28;20063;-79
2023/07/18 02:25:17;;;;;;;5.10;2.40;;;;;;;;;;5068193;28;20497;-79
2023/07/18 02:27:44;;;;;;;4.10;2.78;;;;;;;;;;5071429;28;20028;-78
2023/07/18 02:30:11;;;;;;;3.25;2.70;;;;;;;;;;5071953;28;20029;-79
2023/07/18 02:32:38;;;;;;;7.20;2.60;;;;;;;;;;5072422;28;20501;-79
2023/07/18 02:35:05;;;;;;;3.17;2.22;;;;;;;;;;5070055;28;20433;-79
2023/07/18 02:37:32;;;;;;;6.00;2.50;;;;;;;;;;5068651;28;20017;-79
2023/07/18 02:39:58;;;;;;;3.72;2.50;;;;;;;;;;5070708;28;20086;-80
2023/07/18 02:42:24;;;;;;;3.33;2.90;;;;;;;;;;5068754;28;20020;-80
2023/07/18 02:44:50;;;;;;;3.60;2.63;;;;;;;;;;5068013;28;20032;-79
2023/07/18 02:47:16;;;;;;;4.43;2.90;;;;;;;;;;5069842;28;20027;-79
2023/07/18 02:49:42;;;;;;;2.75;2.38;;;;;;;;;;5065514;28;20040;-79
2023/07/18 02:52:08;;;;;;;6.88;3.30;;;;;;;;;;5069511;28;20043;-80
2023/07/18 02:54:34;;;;;;;3.80;2.50;;;;;;;;;;5084131;28;20025;-80
2023/07/18 02:57:01;;;;;;;5.07;2.50;;;;;;;;;;5070774;28;20082;-80
2023/07/18 02:59:27;;;;;;;4.68;2.40;;;;;;;;;;5066232;28;20017;-79
2023/07/18 03:01:54;;;;;;;3.25;2.65;;;;;;;;;;5067172;28;20036;-78
2023/07/18 03:04:23;;;;;;;3.83;3.00;;;;;;;;;;5061258;28;20024;-80
2023/07/18 03:06:51;;;;;;;7.32;2.63;;;;;;;;;;5069082;28;20032;-79
2023/07/18 03:09:17;;;;;;;4.15;2.65;;;;;;;;;;5063988;28;20033;-78
2023/07/18 03:11:43;;;;;;;4.40;3.13;;;;;;;;;;5065824;28;20024;-79
2023/07/18 03:14:11;;;;;;;5.28;2.60;;;;;;;;;;5069608;28;20036;-78
2023/07/18 03:16:40;;;;;;;6.00;2.47;;;;;;;;;;5063808;28;20059;-79
2023/07/18 03:19:07;;;;;;;4.85;2.45;;;;;;;;;;5071911;28;20094;-79
2023/07/18 03:21:33;;;;;;;5.80;2.30;;;;;;;;;;5070176;28;20033;-78
2023/07/18 03:23:59;;;;;;;2.85;2.40;;;;;;;;;;5073547;28;20029;-79
2023/07/18 03:26:26;;;;;;;3.70;2.30;;;;;;;;;;5071292;28;20035;-79
2023/07/18 03:28:52;;;;;;;4.57;2.30;;;;;;;;;;5071965;28;20108;-79
2023/07/18 03:31:18;;;;;;;5.30;2.50;;;;;;;;;;5070359;28;20034;-79
2023/07/18 03:33:44;;;;;;;3.72;2.00;;;;;;;;;;5070659;28;20108;-79
2023/07/18 03:36:10;;;;;;;5.82;2.50;;;;;;;;;;5069704;28;20029;-79
2023/07/18 03:38:36;;;;;;;2.33;2.10;;;;;;;;;;5070715;28;20028;-79
2023/07/18 03:41:02;;;;;;;4.00;2.08;;;;;;;;;;5072293;28;20024;-79
2023/07/18 03:43:28;;;;;;;4.45;2.22;;;;;;;;;;5068152;28;20028;-81
2023/07/18 03:45:54;;;;;;;3.03;1.77;;;;;;;;;;5066990;28;20024;-79
2023/07/18 03:48:22;;;;;;;2.97;2.05;;;;;;;;;;5072182;28;20060;-78
2023/07/18 03:50:48;;;;;;;4.60;2.22;;;;;;;;;;5069791;28;20067;-78
2023/07/18 03:53:14;;;;;;;7.40;2.33;;;;;;;;;;5068948;28;20051;-79
2023/07/18 03:55:41;;;;;;;2.30;2.10;;;;;;;;;;5071095;28;20474;-78
2023/07/18 03:58:07;;;;;;;4.43;2.00;;;;;;;;;;5071410;28;20480;-79
2023/07/18 04:00:33;;;;;;;4.50;2.00;;;;;;;;;;5070680;28;20120;-79
2023/07/18 04:02:59;;;;;;;3.90;2.10;;;;;;;;;;5071862;28;20036;-79
2023/07/18 04:05:25;;;;;;;3.35;2.25;;;;;;;;;;5072454;28;20580;-77
2023/07/18 04:07:51;;;;;;;2.60;1.90;;;;;;;;;;5072096;28;21700;-79
2023/07/18 04:10:17;;;;;;;3.33;2.33;;;;;;;;;;5070902;28;20029;-80
2023/07/18 04:12:44;;;;;;;2.50;1.95;;;;;;;;;;5068792;28;20474;-79
2023/07/18 04:15:12;;;;;;;3.15;1.88;;;;;;;;;;5068488;28;20029;-79
2023/07/18 04:17:41;;;;;;;3.45;1.90;;;;;;;;;;5067933;28;20029;-79
2023/07/18 04:20:07;;;;;;;2.95;2.00;;;;;;;;;;5072728;28;20024;-79
2023/07/18 04:22:33;;;;;;;3.25;1.90;;;;;;;;;;5070582;28;20033;-79
2023/07/18 04:24:59;;;;;;;4.03;2.10;;;;;;;;;;5070493;28;20028;-79
2023/07/18 04:27:27;;;;;;;3.13;2.17;;;;;;;;;;5070815;28;20039;-79
2023/07/18 04:29:53;;;;;;;5.88;2.80;;;;;;;;;;5071557;28;20036;-78
2023/07/18 04:32:20;;;;;;;4.82;2.05;;;;;;;;;;5076651;28;20285;-79
2023/07/18 04:34:49;;;;;;;3.35;1.90;;;;;;;;;;5074544;28;20029;-79
2023/07/18 04:37:15;;;;;;;3.20;2.10;;;;;;;;;;5071232;28;20100;-79
2023/07/18 04:39:41;;;;;;;3.92;2.03;;;;;;;;;;5087836;28;20028;-79
2023/07/18 04:42:07;;;;;;;2.20;1.95;;;;;;;;;;5068811;28;20052;-79
2023/07/18 04:44:33;;;;;;;4.32;2.15;;;;;;;;;;5066129;28;20037;-78
2023/07/18 04:46:59;;;;;;;2.92;2.20;;;;;;;;;;5071306;28;20024;-79
2023/07/18 04:49:26;;;;;;;2.88;2.20;;;;;;;;;;5077828;28;20828;-79
2023/07/18 04:51:52;;;;;;;9.02;2.40;;;;;;;;;;5072210;28;20081;-79
2023/07/18 04:54:19;;;;;;;7.45;2.42;;;;;;;;;;5077265;28;20032;-80
2023/07/18 04:56:45;;;;;;;5.72;2.47;;;;;;;;;;5084858;28;20055;-78
2023/07/18 04:59:11;;;;;;;5.30;2.95;;;;;;;;;;5085436;28;20025;-79
2023/07/18 05:01:37;;;;;;;3.08;2.55;;;;;;;;;;5093440;28;20012;-78
2023/07/18 05:04:03;;;;;;;4.72;3.35;;;;;;;;;;5092926;28;20032;-79
2023/07/18 05:06:29;;;;;;;5.80;2.28;;;;;;;;;;5086174;28;20049;-80
2023/07/18 05:08:56;;;;;;;3.83;2.40;;;;;;;;;;5084999;28;20073;-79
2023/07/18 05:11:22;;;;;;;5.10;2.10;;;;;;;;;;5077612;28;20029;-80
2023/07/18 05:13:48;;;;;;;2.20;2.00;;;;;;;;;;5072941;28;20029;-80
2023/07/18 05:16:14;;;;;;;1.80;1.70;;;;;;;;;;5067506;28;20116;-79
2023/07/18 05:18:40;;;;;;;2.05;1.83;;;;;;;;;;5073185;28;20113;-79
2023/07/18 05:21:06;;;;;;;2.65;1.90;;;;;;;;;;5074140;28;20036;-79
2023/07/18 05:23:32;;;;;;;1.83;1.65;;;;;;;;;;5071975;28;20033;-79
2023/07/18 05:25:58;;;;;;;2.72;2.00;;;;;;;;;;5066716;28;20044;-79
2023/07/18 05:28:24;;;;;;;3.72;2.00;;;;;;;;;;5071351;28;20039;-79
2023/07/18 05:30:51;;;;;;;2.50;1.95;;;;;;;;;;5068875;28;20024;-80
2023/07/18 05:33:17;;;;;;;3.22;2.28;;;;;;;;;;5073442;28;20042;-80
2023/07/18 05:35:44;;;;;;;2.85;1.77;;;;;;;;;;5069429;28;20029;-80
2023/07/18 05:38:10;;;;;;;2.08;1.88;;;;;;;;;;5066779;28;20055;-79
2023/07/18 05:40:36;;;;;;;2.90;1.83;;;;;;;;;;5069522;28;20051;-79
2023/07/18 05:43:02;;;;;;;2.55;2.13;;;;;;;;;;5067407;28;20036;-79
2023/07/18 05:45:28;;;;;;;2.95;2.65;;;;;;;;;;5065295;28;20028;-79
2023/07/18 05:47:54;;;;;;;3.58;2.30;;;;;;;;;;5070608;28;20056;-78
2023/07/18 05:50:20;;;;;;;2.75;2.00;;;;;;;;;;5069070;28;20051;-79
2023/07/18 05:52:46;;;;;;;5.45;2.30;;;;;;;;;;5065654;28;20083;-80
2023/07/18 05:55:13;;;;;;;4.30;2.20;;;;;;;;;;5068602;28;20036;-80
2023/07/18 05:57:40;;;;;;;2.75;1.77;;;;;;;;;;5068874;28;20095;-80
2023/07/18 06:00:06;;;;;;;4.90;3.08;;;;;;;;;;5069061;28;20040;-79
2023/07/18 06:02:34;;;;;;;2.60;2.28;;;;;;;;;;5067320;28;20094;-79
2023/07/18 06:05:00;;;;;;;5.32;2.13;;;;;;;;;;5068161;28;20036;-79
2023/07/18 06:07:26;;;;;;;2.33;1.85;;;;;;;;;;5068742;28;20060;-78
2023/07/18 06:09:52;;;;;;;3.17;2.03;;;;;;;;;;5071450;28;20028;-78
2023/07/18 06:12:18;;;;;;;4.10;2.10;;;;;;;;;;5088897;28;20059;-80
2023/07/18 06:14:45;;;;;;;4.95;2.00;;;;;;;;;;5073246;28;20024;-78
2023/07/18 06:17:11;;;;;;;4.90;3.03;;;;;;;;;;5071580;28;20044;-79
2023/07/18 06:19:37;;;;;;;2.92;1.98;;;;;;;;;;5066173;28;20029;-78
2023/07/18 06:22:03;;;;;;;3.03;1.80;;;;;;;;;;5069358;28;20039;-78
2023/07/18 06:24:29;;;;;;;2.80;2.10;;;;;;;;;;5075235;28;20032;-74
2023/07/18 06:26:56;;;;;;;9.43;3.67;;;;;;;;;;5070683;28;20035;-77
2023/07/18 06:29:22;;;;;;;5.57;2.70;;;;;;;;;;5071191;28;20025;-79
2023/07/18 06:31:49;;;;;;;4.57;2.25;;;;;;;;;;5069992;28;20501;-79
2023/07/18 06:34:19;;;;;;;3.15;1.90;;;;;;;;;;5071964;28;20082;-79
2023/07/18 06:36:45;;;;;;;3.17;2.10;;;;;;;;;;5069148;28;20035;-78
2023/07/18 06:39:13;;;;;;;4.53;2.10;;;;;;;;;;5069354;28;20128;-77
2023/07/18 06:41:39;;;;;;;3.55;2.00;;;;;;;;;;5066693;28;20028;-78
2023/07/18 06:44:07;;;;;;;3.28;2.00;;;;;;;;;;5072027;28;20386;-78
2023/07/18 06:46:33;;;;;;;3.38;2.10;;;;;;;;;;5068797;28;20029;-77
2023/07/18 06:48:59;;;;;;;5.07;2.10;;;;;;;;;;5069163;28;20024;-77
2023/07/18 06:51:25;;;;;;;6.72;2.38;;;;;;;;;;5074440;28;20033;-78
2023/07/18 06:53:52;;;;;;;2.60;2.00;;;;;;;;;;5068884;28;20032;-78
2023/07/18 06:56:18;;;;;;;9.27;2.90;;;;;;;;;;5069439;28;20028;-78
2023/07/18 06:58:44;;;;;;;3.95;2.30;;;;;;;;;;5067206;28;20078;-79
2023/07/18 07:01:10;;;;;;;5.05;2.40;;;;;;;;;;5068401;28;20021;-78
2023/07/18 07:03:36;;;;;;;5.38;3.10;;;;;;;;;;5072335;28;20078;-79
2023/07/18 07:06:02;;;;;;;3.55;2.50;;;;;;;;;;5064403;28;20585;-79
2023/07/18 07:08:29;;;;;;;3.50;2.63;;;;;;;;;;5070080;28;20040;-78
2023/07/18 07:11:05;;;;;;;5.03;3.30;;;;;;;;;;5068131;28;20032;-77
2023/07/18 07:13:32;;;;;;;4.07;2.75;;;;;;;;;;5067685;28;20032;-78
2023/07/18 07:15:58;;;;;;;4.07;2.80;;;;;;;;;;5067757;28;20135;-78
2023/07/18 07:18:24;;;;;;;7.07;3.08;;;;;;;;;;5065358;28;20016;-77
2023/07/18 07:20:50;;;;;;;5.90;2.60;;;;;;;;;;5063335;28;20048;-77
2023/07/18 07:23:17;;;;;;;4.10;2.53;;;;;;;;;;5066069;28;20078;-78
2023/07/18 07:25:43;;;;;;;4.68;2.85;;;;;;;;;;5062684;28;20273;-78
2023/07/18 07:28:09;;;;;;;5.22;2.70;;;;;;;;;;5065892;28;20063;-77
2023/07/18 07:30:35;;;;;;;4.00;3.40;;;;;;;;;;5064129;28;20036;-79
2023/07/18 07:33:05;;;;;;;5.00;2.95;;;;;;;;;;5061951;28;20454;-77
2023/07/18 07:35:31;;;;;;;3.20;2.35;;;;;;;;;;5060558;28;20036;-77
2023/07/18 07:37:57;;;;;;;6.03;2.60;;;;;;;;;;5061964;28;20028;-77
2023/07/18 07:40:23;;;;;;;4.75;2.45;;;;;;;;;;5050409;28;20479;-77
2023/07/18 07:42:49;;;;;;;3.88;2.70;;;;;;;;;;5061480;28;20033;-78
2023/07/18 07:45:16;;;;;;;6.78;3.00;;;;;;;;;;5060677;28;20422;-79
2023/07/18 07:47:43;;;;;;;4.43;2.58;;;;;;;;;;5059871;28;20028;-77
2023/07/18 07:50:09;;;;;;;4.03;2.80;;;;;;;;;;5055522;28;20114;-78
2023/07/18 07:52:35;;;;;;;4.68;3.38;;;;;;;;;;5061973;28;20057;-77
2023/07/18 07:55:02;;;;;;;3.60;2.40;;;;;;;;;;5062420;28;20034;-78
2023/07/18 07:57:28;;;;;;;4.15;3.00;;;;;;;;;;5074112;28;20027;-78
2023/07/18 07:59:55;;;;;;;5.30;2.83;;;;;;;;;;5084488;28;20096;-78
2023/07/18 08:02:21;;;;;;;4.15;2.33;;;;;;;;;;5072897;28;20120;-77
2023/07/18 08:04:48;;;;;;;5.28;3.22;;;;;;;;;;5067759;28;20028;-77
2023/07/18 08:07:14;;;;;;;4.03;2.58;;;;;;;;;;5079802;28;20032;-76
2023/07/18 08:09:40;;;;;;;4.40;2.88;;;;;;;;;;5082213;28;20024;-76
2023/07/18 08:12:07;;;;;;;4.25;2.90;;;;;;;;;;5088989;28;20062;-76
2023/07/18 08:14:34;;;;;;;5.07;2.60;;;;;;;;;;5091675;28;20024;-78
2023/07/18 08:17:00;;;;;;;3.40;2.35;;;;;;;;;;5090825;28;20076;-77
2023/07/18 08:19:26;;;;;;;3.67;2.58;;;;;;;;;;5086678;28;20052;-77
2023/07/18 08:21:53;;;;;;;5.78;2.30;;;;;;;;;;5079646;28;20028;-77
2023/07/18 08:24:19;;;;;;;5.15;2.33;;;;;;;;;;5076815;28;20102;-78
2023/07/18 08:26:46;;;;;;;3.35;2.25;;;;;;;;;;5072936;28;20468;-76
2023/07/18 08:29:12;;;;;;;3.45;2.08;;;;;;;;;;5075281;28;20025;-78
2023/07/18 08:31:38;;;;;;;3.92;2.20;;;;;;;;;;5067848;28;20490;-78
2023/07/18 08:34:04;;;;;;;3.92;2.30;;;;;;;;;;5068028;28;20025;-78
2023/07/18 08:36:31;;;;;;;4.32;2.38;;;;;;;;;;5064927;28;20038;-80
2023/07/18 08:38:57;;;;;;;2.67;2.03;;;;;;;;;;5074689;28;20016;-77
2023/07/18 08:41:23;;;;;;;4.78;2.35;;;;;;;;;;5067355;28;20565;-78
2023/07/18 08:43:50;;;;;;;2.72;2.28;;;;;;;;;;5068453;28;20081;-75
2023/07/18 08:46:16;;;;;;;5.43;2.65;;;;;;;;;;5070241;28;20111;-77
2023/07/18 08:48:43;;;;;;;3.45;2.20;;;;;;;;;;5064213;28;20108;-78
2023/07/18 08:51:10;;;;;;;2.97;2.10;;;;;;;;;;5058323;28;20036;-77
2023/07/18 08:53:36;;;;;;;2.47;2.03;;;;;;;;;;5070709;28;20028;-77
2023/07/18 08:56:08;;;;;;;4.88;2.30;;;;;;;;;;5068439;28;20025;-76
2023/07/18 08:58:36;;;;;;;2.55;2.10;;;;;;;;;;5070223;28;20029;-77
2023/07/18 09:01:02;;;;;;;4.35;2.38;;;;;;;;;;5074570;28;20016;-78
2023/07/18 09:03:28;;;;;;;2.58;2.30;;;;;;;;;;5067255;28;20044;-78
2023/07/18 09:05:54;;;;;;;2.60;2.15;;;;;;;;;;5063288;28;20390;-78
2023/07/18 09:08:22;;;;;;;2.95;1.98;;;;;;;;;;5071078;28;20021;-77
2023/07/18 09:10:49;;;;;;;3.40;2.20;;;;;;;;;;5067539;28;20429;-80
2023/07/18 09:13:16;;;;;;;3.33;2.13;;;;;;;;;;5069148;28;20028;-79
2023/07/18 09:15:42;;;;;;;5.25;2.30;;;;;;;;;;5062080;28;20497;-77
2023/07/18 09:18:09;;;;;;;2.97;2.20;;;;;;;;;;5063051;28;20028;-78
2023/07/18 09:20:35;;;;;;;2.58;2.20;;;;;;;;;;5060699;28;20384;-75
2023/07/18 09:23:05;;;;;;;2.92;1.92;;;;;;;;;;5058598;28;20024;-75
2023/07/18 09:25:31;;;;;;;2.28;2.03;;;;;;;;;;5058151;28;20057;-76
2023/07/18 09:27:58;;;;;;;4.05;2.10;;;;;;;;;;5059197;28;20055;-76
2023/07/18 09:30:28;;;;;;;4.95;2.30;;;;;;;;;;5065282;28;20150;-76
2023/07/18 09:32:55;;;;;;;2.17;1.80;;;;;;;;;;5062020;28;20032;-76
2023/07/18 09:35:21;;;;;;;3.55;2.00;;;;;;;;;;5059747;28;21414;-75
2023/07/18 09:37:48;;;;;;;2.33;1.90;;;;;;;;;;5068386;28;20111;-78
2023/07/18 09:40:15;;;;;;;2.83;2.00;;;;;;;;;;5065620;28;20016;-78
2023/07/18 09:42:46;;;;;;;3.03;2.10;;;;;;;;;;5059755;28;20556;-77
2023/07/18 09:45:16;;;;;;;4.05;2.10;;;;;;;;;;5080987;28;20036;-78
2023/07/18 09:47:42;;;;;;;3.03;1.90;;;;;;;;;;5064044;28;20097;-76
2023/07/18 09:50:09;;;;;;;2.15;1.80;;;;;;;;;;5058209;28;20020;-78
2023/07/18 09:52:37;;;;;;;6.25;2.50;;;;;;;;;;5057049;28;20028;-76
2023/07/18 09:55:06;;;;;;;2.70;2.10;;;;;;;;;;5064286;28;20560;-76
2023/07/18 09:57:33;;;;;;;2.13;1.92;;;;;;;;;;5062506;28;20013;-78
2023/07/18 10:00:05;;;;;;;3.05;1.95;;;;;;;;;;5061190;28;20090;-78
2023/07/18 10:02:34;;;;;;;2.63;2.00;;;;;;;;;;5058661;28;20021;-78
2023/07/18 10:05:02;;;;;;;3.08;1.92;;;;;;;;;;5062619;28;20036;-75
2023/07/18 10:07:29;;;;;;;2.40;2.08;;;;;;;;;;5064405;28;20074;-78
2023/07/18 10:09:56;;;;;;;2.70;2.10;;;;;;;;;;5060027;28;20029;-78
2023/07/18 10:12:22;;;;;;;4.25;3.10;;;;;;;;;;5053685;28;20023;-78
2023/07/18 10:14:49;;;;;;;3.00;1.77;;;;;;;;;;5054432;28;20036;-78
2023/07/18 10:17:25;;;;;;;3.15;2.08;;;;;;;;;;5057944;28;20111;-78
2023/07/18 10:19:51;;;;;;;3.42;2.22;;;;;;;;;;5059313;28;20405;-78
2023/07/18 10:22:30;;;;;;;3.85;1.92;;;;;;;;;;5059985;28;20492;-78
2023/07/18 10:25:06;;;;;;;2.92;1.63;;;;;;;;;;5065550;28;20025;-80
2023/07/18 10:27:39;;;;;;;1.52;1.40;;;;;;;;;;5068217;28;20056;-78
2023/07/18 10:30:07;;;;;;;1.85;1.50;;;;;;;;;;5071291;28;20090;-78
2023/07/18 10:32:34;;;;;;;2.33;1.60;;;;;;;;;;5070887;28;20028;-79
2023/07/18 10:35:01;;;;;;;1.48;1.33;;;;;;;;;;5061818;28;20071;-78
2023/07/18 10:37:27;;;;;;;1.60;1.50;;;;;;;;;;5070452;28;20024;-80
2023/07/18 10:39:54;;;;;;;1.45;1.20;;;;;;;;;;5071127;28;20035;-78
2023/07/18 10:42:20;;;;;;;2.60;1.73;;;;;;;;;;5070973;28;20024;-78
2023/07/18 10:44:52;;;;;;;2.25;1.60;;;;;;;;;;5069345;28;20036;-79
2023/07/18 10:47:19;;;;;;;2.22;1.52;;;;;;;;;;5068918;28;20039;-78
2023/07/18 10:49:47;;;;;;;2.50;1.70;;;;;;;;;;5066352;28;20032;-78
2023/07/18 10:52:13;;;;;;;3.60;1.92;;;;;;;;;;5064828;28;20448;-78
2023/07/18 10:54:54;;;;;;;1.92;1.45;;;;;;;;;;5068925;28;20039;-78
2023/07/18 10:57:29;;;;;;;3.45;1.55;;;;;;;;;;5068251;28;20027;-78
2023/07/18 10:59:57;;;;;;;1.70;1.50;;;;;;;;;;5076715;28;20012;-78
2023/07/18 11:02:23;;;;;;;1.50;1.40;;;;;;;;;;5073807;28;20079;-78
2023/07/18 11:04:51;;;;;;;1.65;1.30;;;;;;;;;;5070309;28;20547;-78
2023/07/18 11:07:17;;;;;;;1.60;1.50;;;;;;;;;;5068764;28;20421;-77
2023/07/18 11:09:44;;;;;;;1.40;1.30;;;;;;;;;;5073734;28;20032;-79
2023/07/18 11:12:17;;;;;;;1.30;1.30;;;;;;;;;;5077119;28;20088;-79
2023/07/18 11:14:43;;;;;;;2.15;1.95;;;;;;;;;;5061851;28;20040;-78
2023/07/18 11:17:12;;;;;;;1.73;1.40;;;;;;;;;;5076680;28;20048;-80
2023/07/18 11:19:38;;;;;;;2.38;1.70;;;;;;;;;;5073577;28;20028;-78
2023/07/18 11:22:05;;;;;;;1.85;1.75;;;;;;;;;;5087374;28;20048;-78
2023/07/18 11:24:31;;;;;;;5.75;2.00;;;;;;;;;;5083926;28;20081;-80
2023/07/18 11:27:15;;;;;;;4.28;1.70;;;;;;;;;;5091579;28;20049;-81
2023/07/18 11:30:03;;;;;;;2.07;1.67;;;;;;;;;;5081139;28;20024;-79
2023/07/18 11:32:35;;;;;;;1.90;1.50;;;;;;;;;;5085395;28;20029;-78
2023/07/18 11:35:02;;;;;;;1.60;1.50;;;;;;;;;;5098144;28;20033;-79
2023/07/18 11:37:28;;;;;;;1.90;1.70;;;;;;;;;;5077995;28;20106;-78
2023/07/18 11:39:55;;;;;;;3.38;1.77;;;;;;;;;;5079199;28;20043;-79
2023/07/18 11:42:21;;;;;;;2.08;1.70;;;;;;;;;;5076243;28;20441;-78
2023/07/18 11:44:48;;;;;;;2.78;2.10;;;;;;;;;;5081566;28;20024;-80
2023/07/18 11:47:16;;;;;;;3.63;2.20;;;;;;;;;;5083277;28;20025;-79
2023/07/18 11:49:44;;;;;;;1.90;1.80;;;;;;;;;;5077473;28;20089;-79
2023/07/18 11:52:11;;;;;;;1.60;1.50;;;;;;;;;;5078322;28;20111;-79
2023/07/18 11:54:37;;;;;;;2.13;1.60;;;;;;;;;;5075633;28;20421;-77
2023/07/18 11:57:03;;;;;;;2.03;1.60;;;;;;;;;;5076864;28;20023;-78
2023/07/18 11:59:30;;;;;;;3.00;1.55;;;;;;;;;;5075372;28;20553;-76
2023/07/18 12:01:57;;;;;;;4.03;1.63;;;;;;;;;;5074843;28;20032;-77
2023/07/18 12:04:23;;;;;;;1.73;1.63;;;;;;;;;;5086852;28;20029;-77
2023/07/18 12:06:49;;;;;;;4.40;1.75;;;;;;;;;;5082728;28;20027;-77
2023/07/18 12:09:16;;;;;;;2.70;1.77;;;;;;;;;;5097395;28;20046;-77
2023/07/18 12:11:42;;;;;;;2.90;1.65;;;;;;;;;;5073783;28;20040;-78
2023/07/18 12:14:08;;;;;;;2.85;1.95;;;;;;;;;;5073111;28;20036;-80
2023/07/18 12:16:35;;;;;;;3.55;2.25;;;;;;;;;;5075294;28;20041;-77
2023/07/18 12:19:02;;;;;;;1.50;1.40;;;;;;;;;;5078559;28;20051;-76
2023/07/18 12:21:29;;;;;;;1.70;1.48;;;;;;;;;;5079032;28;20033;-74
2023/07/18 12:23:55;;;;;;;1.70;1.60;;;;;;;;;;5080754;28;20417;-76
2023/07/18 12:26:21;;;;;;;1.25;1.25;;;;;;;;;;5081651;28;20025;-77
2023/07/18 12:28:47;;;;;;;2.88;1.48;;;;;;;;;;5079295;28;20028;-78
2023/07/18 12:31:15;;;;;;;1.73;1.63;;;;;;;;;;5076165;28;20088;-76
2023/07/18 12:33:41;;;;;;;2.17;1.55;;;;;;;;;;5079340;28;20032;-79
2023/07/18 12:36:07;;;;;;;2.00;1.70;;;;;;;;;;5076782;28;20036;-77
2023/07/18 12:38:33;;;;;;;2.60;1.40;;;;;;;;;;5072015;28;20032;-79
2023/07/18 12:40:59;;;;;;;2.20;1.42;;;;;;;;;;5074367;28;20036;-78
2023/07/18 12:43:25;;;;;;;1.40;1.30;;;;;;;;;;5069261;28;20037;-79
2023/07/18 12:45:51;;;;;;;1.63;1.52;;;;;;;;;;5072560;28;20039;-77
2023/07/18 12:48:18;;;;;;;1.38;1.27;;;;;;;;;;5072748;28;20078;-77
2023/07/18 12:50:44;;;;;;;3.20;1.45;;;;;;;;;;5070363;28;20028;-78
2023/07/18 12:53:10;;;;;;;1.25;1.20;;;;;;;;;;5081608;28;20055;-79
2023/07/18 12:55:50;;;;;;;1.77;1.30;;;;;;;;;;5088125;28;20051;-78
2023/07/18 12:58:18;;;;;;;1.15;1.13;;;;;;;;;;5067575;28;20017;-78
2023/07/18 13:00:45;;;;;;;1.60;1.50;;;;;;;;;;5091282;28;20607;-79
2023/07/18 13:03:12;;;;;;;1.27;1.27;;;;;;;;;;5070588;28;20036;-77
2023/07/18 13:05:38;;;;;;;1.20;1.20;;;;;;;;;;5072343;28;20371;-79
2023/07/18 13:08:05;;;;;;;1.58;1.30;;;;;;;;;;5062885;28;20168;-79
2023/07/18 13:10:31;;;;;;;1.40;1.40;;;;;;;;;;5060960;28;20033;-79
2023/07/18 13:12:57;;;;;;;2.22;1.70;;;;;;;;;;5057987;28;20025;-78
2023/07/18 13:15:23;;;;;;;1.55;1.20;;;;;;;;;;5079382;28;20037;-78
2023/07/18 13:17:49;;;;;;;1.45;1.30;;;;;;;;;;5067535;28;20020;-78
2023/07/18 13:20:15;;;;;;;1.42;1.20;;;;;;;;;;5071853;28;20028;-78
2023/07/18 13:22:42;;;;;;;2.67;1.55;;;;;;;;;;5067406;28;20025;-78
2023/07/18 13:25:10;;;;;;;1.35;1.25;;;;;;;;;;5061459;28;20028;-79
2023/07/18 13:27:36;;;;;;;1.65;1.55;;;;;;;;;;5068188;28;20020;-78
2023/07/18 13:30:02;;;;;;;1.75;1.50;;;;;;;;;;5064487;28;20021;-77
2023/07/18 13:32:28;;;;;;;2.35;1.50;;;;;;;;;;5062149;28;20108;-78
2023/07/18 13:34:54;;;;;;;1.85;1.35;;;;;;;;;;5061410;28;20162;-78
2023/07/18 13:37:20;;;;;;;2.00;1.50;;;;;;;;;;5063402;28;20033;-78
2023/07/18 13:39:47;;;;;;;1.52;1.40;;;;;;;;;;5069300;28;20031;-79
2023/07/18 13:42:13;;;;;;;1.50;1.40;;;;;;;;;;5083314;28;20051;-78
2023/07/18 13:44:39;;;;;;;2.28;1.67;;;;;;;;;;5061176;28;20024;-77
2023/07/18 13:47:06;;;;;;;2.47;1.50;;;;;;;;;;5066527;28;20037;-77
2023/07/18 13:49:32;;;;;;;3.63;1.65;;;;;;;;;;5065106;28;20088;-78
2023/07/18 13:51:58;;;;;;;4.70;2.08;;;;;;;;;;5075448;28;20035;-77
2023/07/18 13:54:25;;;;;;;4.28;1.85;;;;;;;;;;5076440;28;20106;-76
2023/07/18 13:56:51;;;;;;;2.30;1.92;;;;;;;;;;5077289;28;20028;-78
2023/07/18 13:59:17;;;;;;;2.35;1.95;;;;;;;;;;5068936;28;20573;-78
2023/07/18 14:01:45;;;;;;;2.50;1.90;;;;;;;;;;5067938;28;20035;-78
2023/07/18 14:04:11;;;;;;;2.03;1.58;;;;;;;;;;5061049;28;20020;-80
2023/07/18 14:06:37;;;;;;;2.25;1.90;;;;;;;;;;5057566;28;20025;-78
2023/07/18 14:09:03;;;;;;;1.80;1.70;;;;;;;;;;5060862;28;20047;-80
2023/07/18 14:11:31;;;;;;;1.60;1.50;;;;;;;;;;5062318;28;20059;-77
2023/07/18 14:13:58;;;;;;;2.38;2.17;;;;;;;;;;5059071;28;20043;-77
2023/07/18 14:16:25;;;;;;;1.63;1.52;;;;;;;;;;5062235;28;20052;-80
2023/07/18 14:18:51;;;;;;;1.75;1.50;;;;;;;;;;5062992;28;20021;-81
2023/07/18 14:21:17;;;;;;;1.67;1.50;;;;;;;;;;5059842;28;20054;-78
2023/07/18 14:23:43;;;;;;;1.90;1.27;;;;;;;;;;5065086;28;20035;-77
2023/07/18 14:26:09;;;;;;;1.48;1.08;;;;;;;;;;5065512;28;20108;-82
2023/07/18 14:28:35;;;;;;;1.25;1.25;;;;;;;;;;5054446;28;20058;-78
2023/07/18 14:31:02;;;;;;;1.48;1.38;;;;;;;;;;5057138;28;20032;-80
2023/07/18 14:33:28;;;;;;;1.13;1.10;;;;;;;;;;5063577;28;20085;-78
2023/07/18 14:35:54;;;;;;;1.13;1.10;;;;;;;;;;5069205;28;20107;-76
2023/07/18 14:38:20;;;;;;;1.20;1.10;;;;;;;;;;5066172;28;20063;-81
2023/07/18 14:40:47;;;;;;;1.75;1.33;;;;;;;;;;5079259;28;20021;-81